createdAt,value
2022-11-20T00:04:40.646Z,0.14
2022-11-20T00:09:40.614Z,0.20
2022-11-20T00:14:40.581Z,0.28
2022-11-20T00:19:40.498Z,0.31
2022-11-20T00:24:43.181Z,0.38
2022-11-20T00:29:40.443Z,0.36
2022-11-20T00:34:40.280Z,0.53
2022-11-20T00:39:40.296Z,0.58
2022-11-20T00:44:40.370Z,0.69
2022-11-20T00:49:40.171Z,0.75
2022-11-20T00:54:40.096Z,0.76
2022-11-20T00:59:40.110Z,0.78
2022-11-20T01:04:40.024Z,0.86
2022-11-20T01:09:39.923Z,1.00
2022-11-20T01:14:39.899Z,1.08
2022-11-20T01:19:39.878Z,1.05
2022-11-20T01:24:39.813Z,1.18
2022-11-20T01:29:39.732Z,1.29
2022-11-20T01:34:39.663Z,1.34
2022-11-20T01:39:39.656Z,1.33
2022-11-20T01:44:48.927Z,1.42
2022-11-20T01:49:39.464Z,1.42
2022-11-20T01:54:39.447Z,1.44
2022-11-20T01:59:39.394Z,1.52
2022-11-20T02:04:39.294Z,1.65
2022-11-20T02:09:39.372Z,1.72
2022-11-20T02:14:39.221Z,1.79
2022-11-20T02:19:39.170Z,1.76
2022-11-20T02:24:39.106Z,1.76
2022-11-20T02:29:39.057Z,1.70
2022-11-20T02:34:39.088Z,1.79
2022-11-20T02:39:38.919Z,1.81
2022-11-20T02:44:39.936Z,1.86
2022-11-20T02:49:38.992Z,1.88
2022-11-20T02:54:38.923Z,1.93
2022-11-20T02:59:38.833Z,1.95
2022-11-20T03:04:38.651Z,2.02
2022-11-20T03:09:38.742Z,2.07
2022-11-20T03:14:38.566Z,2.12
2022-11-20T03:19:38.516Z,2.10
2022-11-20T03:24:38.574Z,2.16
2022-11-20T03:29:38.373Z,2.16
2022-11-20T03:34:38.344Z,2.20
2022-11-20T03:39:38.275Z,2.20
2022-11-20T03:44:38.246Z,2.23
2022-11-20T03:49:38.177Z,2.23
2022-11-20T03:54:38.126Z,2.24
2022-11-20T03:59:38.084Z,2.25
2022-11-20T04:04:37.997Z,2.31
2022-11-20T04:09:38.114Z,2.35
2022-11-20T04:14:38.079Z,2.38
2022-11-20T04:19:38.011Z,2.39
2022-11-20T04:24:37.794Z,2.34
2022-11-20T04:29:37.841Z,2.43
2022-11-20T04:34:38.729Z,2.46
2022-11-20T04:39:37.619Z,2.49
2022-11-20T04:44:37.603Z,2.52
2022-11-20T04:49:37.599Z,2.53
2022-11-20T04:54:37.565Z,2.57
2022-11-20T04:59:37.429Z,2.53
2022-11-20T05:04:37.434Z,2.63
2022-11-20T05:09:37.384Z,2.61
2022-11-20T05:14:37.257Z,2.61
2022-11-20T05:19:40.659Z,2.69
2022-11-20T05:24:37.118Z,2.74
2022-11-20T05:29:37.078Z,2.75
2022-11-20T05:34:37.051Z,2.77
2022-11-20T05:39:36.992Z,2.75
2022-11-20T05:44:36.898Z,2.77
2022-11-20T05:49:36.846Z,2.77
2022-11-20T05:54:36.839Z,2.79
2022-11-20T05:59:36.808Z,2.81
2022-11-20T06:04:36.836Z,2.85
2022-11-20T06:09:36.785Z,2.87
2022-11-20T06:14:36.603Z,2.89
2022-11-20T06:19:36.553Z,2.90
2022-11-20T06:24:36.492Z,2.85
2022-11-20T06:29:36.415Z,2.82
2022-11-20T06:34:36.374Z,2.85
2022-11-20T06:39:39.771Z,2.77
2022-11-20T06:44:36.249Z,2.75
2022-11-20T06:49:36.222Z,2.75
2022-11-20T06:54:36.321Z,2.77
2022-11-20T06:59:36.094Z,2.81
2022-11-20T07:04:36.241Z,2.82
2022-11-20T07:09:36.023Z,2.82
2022-11-20T07:14:35.961Z,2.85
2022-11-20T07:19:35.899Z,2.84
2022-11-20T07:24:35.841Z,2.92
2022-11-20T07:29:35.824Z,2.95
2022-11-20T07:34:37.822Z,2.97
2022-11-20T07:39:37.745Z,3.11
2022-11-20T07:44:35.743Z,3.18
2022-11-20T07:49:35.710Z,3.24
2022-11-20T07:54:35.485Z,3.26
2022-11-20T07:59:35.471Z,3.26
2022-11-20T08:04:35.412Z,3.23
2022-11-20T08:09:35.392Z,3.15
2022-11-20T08:14:35.271Z,3.03
2022-11-20T08:19:35.358Z,2.87
2022-11-20T08:24:35.148Z,2.75
2022-11-20T08:29:35.223Z,2.66
2022-11-20T08:34:35.360Z,2.63
2022-11-20T08:39:35.006Z,2.72
2022-11-20T08:44:35.122Z,3.03
2022-11-20T08:49:35.064Z,3.31
2022-11-20T08:54:34.998Z,3.57
2022-11-20T09:00:04.344Z,3.68
2022-11-20T09:04:35.769Z,3.93
2022-11-20T09:09:34.788Z,4.11
2022-11-20T09:14:34.617Z,4.27
2022-11-20T09:19:36.145Z,4.36
2022-11-20T09:24:34.499Z,4.44
2022-11-20T09:29:34.617Z,4.52
2022-11-20T09:34:34.450Z,4.69
2022-11-20T09:39:34.552Z,4.78
2022-11-20T09:44:34.295Z,4.40
2022-11-20T09:49:34.797Z,4.54
2022-11-20T09:54:35.311Z,4.97
2022-11-20T09:59:34.192Z,5.04
2022-11-20T10:04:36.869Z,5.06
2022-11-20T10:09:35.012Z,4.99
2022-11-20T10:14:33.959Z,5.27
2022-11-20T10:19:33.899Z,5.40
2022-11-20T10:24:33.851Z,5.28
2022-11-20T10:29:33.797Z,5.27
2022-11-20T10:34:33.767Z,5.17
2022-11-20T10:39:33.731Z,5.21
2022-11-20T10:44:33.662Z,5.35
2022-11-20T10:49:33.621Z,5.64
2022-11-20T10:54:33.523Z,5.74
2022-11-20T10:59:33.710Z,5.78
2022-11-20T11:04:34.049Z,5.90
2022-11-20T11:09:33.430Z,6.03
2022-11-20T11:14:33.302Z,6.21
2022-11-20T11:19:33.246Z,6.30
2022-11-20T11:24:42.687Z,6.08
2022-11-20T11:29:34.251Z,5.89
2022-11-20T11:34:33.116Z,5.94
2022-11-20T11:39:33.085Z,6.11
2022-11-20T11:44:32.996Z,6.03
2022-11-20T11:49:33.076Z,6.22
2022-11-20T11:54:33.022Z,6.30
2022-11-20T11:59:32.956Z,6.48
2022-11-20T12:04:32.772Z,6.43
2022-11-20T12:09:32.703Z,6.51
2022-11-20T12:14:32.757Z,6.56
2022-11-20T12:19:32.815Z,6.15
2022-11-20T12:24:32.543Z,6.08
2022-11-20T12:29:32.622Z,6.19
2022-11-20T12:34:32.471Z,6.22
2022-11-20T12:39:32.500Z,6.31
2022-11-20T12:44:32.406Z,6.25
2022-11-20T12:49:32.387Z,6.15
2022-11-20T12:54:32.308Z,6.21
2022-11-20T12:59:32.190Z,6.25
2022-11-20T13:04:32.319Z,6.21
2022-11-20T13:09:32.243Z,6.34
2022-11-20T13:14:32.162Z,6.34
2022-11-20T13:19:32.077Z,6.37
2022-11-20T13:24:31.875Z,6.41
2022-11-20T13:29:31.836Z,6.36
2022-11-20T13:34:31.962Z,6.30
2022-11-20T13:39:31.727Z,6.38
2022-11-20T13:44:31.670Z,6.22
2022-11-20T13:49:31.641Z,6.44
2022-11-20T13:54:31.570Z,6.33
2022-11-20T13:59:31.546Z,6.51
2022-11-20T14:04:31.561Z,6.58
2022-11-20T14:09:31.531Z,6.44
2022-11-20T14:14:31.469Z,6.46
2022-11-20T14:19:31.484Z,6.36
2022-11-20T14:24:31.236Z,6.33
2022-11-20T14:29:31.177Z,6.08
2022-11-20T14:34:31.107Z,6.08
2022-11-20T14:39:32.193Z,6.15
2022-11-20T14:44:31.092Z,6.19
2022-11-20T14:49:31.016Z,6.08
2022-11-20T14:54:30.953Z,6.00
2022-11-20T14:59:30.894Z,6.12
2022-11-20T15:04:30.832Z,5.97
2022-11-20T15:09:30.796Z,6.08
2022-11-20T15:14:30.700Z,5.86
2022-11-20T15:19:30.677Z,5.96
2022-11-20T15:24:30.693Z,5.96
2022-11-20T15:29:30.499Z,5.83
2022-11-20T15:34:30.437Z,5.82
2022-11-20T15:39:30.421Z,5.81
2022-11-20T15:44:30.486Z,5.78
2022-11-20T15:49:30.390Z,5.79
2022-11-20T15:54:30.460Z,5.78
2022-11-20T15:59:30.302Z,5.74
2022-11-20T16:04:30.149Z,5.75
2022-11-20T16:09:30.062Z,5.72
2022-11-20T16:14:30.030Z,5.74
2022-11-20T16:19:30.001Z,5.74
2022-11-20T16:24:29.978Z,5.65
2022-11-20T16:29:29.976Z,5.79
2022-11-20T16:34:30.004Z,5.78
2022-11-20T16:39:29.824Z,5.90
2022-11-20T16:44:29.677Z,5.97
2022-11-20T16:49:29.754Z,6.11
2022-11-20T16:54:29.703Z,6.17
2022-11-20T16:59:29.693Z,6.12
2022-11-20T17:04:29.455Z,6.28
2022-11-20T17:09:29.444Z,6.31
2022-11-20T17:14:29.369Z,6.36
2022-11-20T17:19:29.431Z,6.38
2022-11-20T17:24:32.067Z,6.34
2022-11-20T17:29:29.299Z,6.37
2022-11-20T17:34:29.122Z,6.38
2022-11-20T17:39:29.077Z,6.36
2022-11-20T17:44:29.046Z,6.25
2022-11-20T17:49:28.992Z,6.37
2022-11-20T17:54:29.013Z,6.40
2022-11-20T17:59:30.951Z,6.34
2022-11-20T18:04:28.901Z,6.36
2022-11-20T18:09:28.765Z,6.37
2022-11-20T18:14:28.695Z,6.38
2022-11-20T18:19:32.186Z,6.51
2022-11-20T18:24:28.585Z,6.55
2022-11-20T18:29:28.667Z,6.54
2022-11-20T18:34:28.790Z,6.48
2022-11-20T18:39:29.033Z,6.56
2022-11-20T18:44:28.556Z,6.59
2022-11-20T18:49:28.308Z,6.58
2022-11-20T18:54:28.339Z,6.62
2022-11-20T18:59:28.450Z,6.67
2022-11-20T19:04:28.125Z,6.70
2022-11-20T19:09:28.223Z,6.80
2022-11-20T19:14:28.095Z,6.67
2022-11-20T19:19:28.169Z,6.81
2022-11-20T19:24:27.911Z,6.98
2022-11-20T19:29:27.991Z,7.05
2022-11-20T19:34:30.441Z,7.10
2022-11-20T19:39:27.951Z,7.20
2022-11-20T19:44:27.721Z,7.34
2022-11-20T19:49:27.640Z,7.37
2022-11-20T19:54:27.568Z,7.45
2022-11-20T19:59:27.712Z,7.57
2022-11-20T20:04:27.517Z,7.69
2022-11-20T20:09:27.464Z,7.82
2022-11-20T20:14:27.422Z,7.86
2022-11-20T20:19:27.347Z,7.89
2022-11-20T20:24:27.283Z,8.00
2022-11-20T20:29:27.436Z,7.95
2022-11-20T20:34:27.153Z,7.98
2022-11-20T20:39:27.374Z,7.97
2022-11-20T20:44:27.155Z,8.07
2022-11-20T20:49:27.112Z,8.00
2022-11-20T20:54:30.316Z,8.00
2022-11-20T20:59:27.946Z,7.95
2022-11-20T21:04:26.895Z,7.89
2022-11-20T21:09:26.755Z,7.93
2022-11-20T21:14:26.728Z,7.74
2022-11-20T21:19:26.651Z,7.77
2022-11-20T21:24:26.686Z,7.48
2022-11-20T21:29:26.547Z,7.55
2022-11-20T21:34:26.780Z,7.46
2022-11-20T21:39:26.436Z,7.55
2022-11-20T21:44:33.564Z,7.31
2022-11-20T21:49:27.308Z,7.28
2022-11-20T21:54:26.735Z,7.21
2022-11-20T21:59:26.198Z,7.30
2022-11-20T22:04:26.435Z,7.07
2022-11-20T22:09:26.132Z,6.88
2022-11-20T22:14:29.560Z,6.92
2022-11-20T22:19:25.996Z,6.91
2022-11-20T22:24:26.351Z,6.76
2022-11-20T22:29:25.873Z,6.76
2022-11-20T22:34:26.282Z,6.79
2022-11-20T22:39:26.298Z,6.66
2022-11-20T22:44:25.998Z,6.61
2022-11-20T22:49:25.667Z,6.64
2022-11-20T22:54:25.818Z,6.58
2022-11-20T22:59:25.577Z,6.51
2022-11-20T23:04:25.997Z,6.51
2022-11-20T23:09:25.436Z,6.59
2022-11-20T23:14:27.771Z,6.55
2022-11-20T23:19:26.404Z,6.56
2022-11-20T23:24:25.600Z,6.34
2022-11-20T23:29:25.271Z,6.31
2022-11-20T23:34:25.480Z,6.25
2022-11-20T23:39:25.104Z,6.30
2022-11-20T23:44:25.507Z,6.15
2022-11-20T23:49:25.110Z,6.09
2022-11-20T23:54:25.422Z,5.94
2022-11-20T23:59:25.066Z,5.93
